Terminal Aerodrome Forecast
Issued by NWS

Home | Current Version | Previous Version | Text Only | Print | Product List | Glossary On
Versions: 1 2 3 4 5 6 7 8 9 10 11 12 13 14 15 16 17 18 19 20 21 22 23 24 25 26 27 28 29 30 31
000
FTUS43 KLSX 052212 AAD
TAFUIN
TAF AMD
KUIN 052212Z 0522/0618 13009KT 4SM BR OVC008
     FM060000 14007KT P6SM SCT008 BKN250
     FM060600 12004KT 3SM BR OVC008
     FM061200 30006KT 3SM BR OVC008=

USA.gov is the U.S. government's official web portal to all federal, state and local government web resources and services.